KMHK

Manhattan Regional Airport

Manhattan, Kansas, USA
METAR KMHK 172104Z 00000KT 10SM BKN031 12/04 A2996 RMK AO2 T01220044
Observed Flight Rules
Dec-17 @ 21:04 UTC (22 minutes ago) Visual Flight Rules
Wind Visibility Clouds
Calm 10 miles
  • Broken at 3,100' AGL
Temperatures Readings
Current 12°C / 54°F
Dewpoint 4°C / 39°F
Humidity 58%
Altimeter 29.96" Hg
Pressure 1015 hPa
Elevation 317
METAR KMHK 172104Z 00000KT 10SM BKN031 12/04 A2996 RMK AO2 T01220044
Observed Flight Rules
Dec-17 @ 21:04 UTC
(22 minutes ago)
VFR
Wind Visibility
Calm 10 miles
Clouds
  • Broken at 3,100' AGL
Temperature Dewpoint
12°C / 54°F 4°C / 39°F
Humidity Altimeter Pressure
58% 29.96" Hg 1015 hPa